createdAt,value
2018-07-14T00:03:16.528Z,99.90
2018-07-14T00:08:11.297Z,99.90
2018-07-14T00:13:06.293Z,99.90
2018-07-14T00:18:01.098Z,99.90
2018-07-14T00:22:55.804Z,99.90
2018-07-14T00:27:50.627Z,99.90
2018-07-14T00:32:45.382Z,99.90
2018-07-14T00:37:40.135Z,99.90
2018-07-14T00:42:34.967Z,99.90
2018-07-14T00:47:29.896Z,99.90
2018-07-14T00:52:24.696Z,99.90
2018-07-14T00:57:19.461Z,99.90
2018-07-14T01:02:14.232Z,99.90
2018-07-14T01:07:08.997Z,99.90
2018-07-14T01:12:03.633Z,99.90
2018-07-14T01:16:58.400Z,99.90
2018-07-14T01:21:53.091Z,99.90
2018-07-14T01:26:47.681Z,99.90
2018-07-14T01:31:42.614Z,99.90
2018-07-14T01:36:37.275Z,99.90
2018-07-14T01:41:32.047Z,99.90
2018-07-14T01:46:26.820Z,99.90
2018-07-14T01:51:21.727Z,99.90
2018-07-14T01:56:16.388Z,99.90
2018-07-14T02:01:11.437Z,99.90
2018-07-14T02:06:06.397Z,99.90
2018-07-14T02:11:01.029Z,99.90
2018-07-14T02:15:55.630Z,99.90
2018-07-14T02:20:50.247Z,99.90
2018-07-14T02:25:44.863Z,99.90
2018-07-14T02:30:39.460Z,99.90
2018-07-14T02:35:34.085Z,99.90
2018-07-14T02:40:28.737Z,99.90
2018-07-14T02:45:23.485Z,99.90
2018-07-14T02:50:18.407Z,99.90
2018-07-14T02:55:12.997Z,99.90
2018-07-14T03:00:07.697Z,99.90
2018-07-14T03:05:02.352Z,99.90
2018-07-14T03:09:57.008Z,99.90
2018-07-14T03:14:51.685Z,99.90
2018-07-14T03:19:46.321Z,99.90
2018-07-14T03:24:42.896Z,99.90
2018-07-14T03:29:37.504Z,99.90
2018-07-14T03:34:32.160Z,99.90
2018-07-14T03:39:26.800Z,99.90
2018-07-14T03:44:21.469Z,99.90
2018-07-14T03:49:16.083Z,99.90
2018-07-14T03:54:10.723Z,99.90
2018-07-14T03:59:05.859Z,99.90
2018-07-14T04:04:00.499Z,99.90
2018-07-14T04:08:55.204Z,99.90
2018-07-14T04:13:49.808Z,99.90
2018-07-14T04:18:44.537Z,99.90
2018-07-14T04:23:39.176Z,99.90
2018-07-14T04:28:33.800Z,99.90
2018-07-14T04:33:28.485Z,99.90
2018-07-14T04:38:23.108Z,99.90
2018-07-14T04:43:17.915Z,99.90
2018-07-14T04:48:12.536Z,99.90
2018-07-14T04:53:07.292Z,99.90
2018-07-14T04:58:01.933Z,99.90
2018-07-14T05:02:56.592Z,99.90
2018-07-14T05:07:51.264Z,99.90
2018-07-14T05:12:45.874Z,99.90
2018-07-14T05:17:40.481Z,99.90
2018-07-14T05:22:35.372Z,99.90
2018-07-14T05:27:30.001Z,99.90
2018-07-14T05:32:24.596Z,99.90
2018-07-14T05:37:19.357Z,99.90
2018-07-14T05:42:14.060Z,99.90
2018-07-14T05:47:09.045Z,99.90
2018-07-14T05:52:03.777Z,99.90
2018-07-14T05:56:58.540Z,99.90
2018-07-14T06:01:53.298Z,99.90
2018-07-14T06:06:47.935Z,99.90
2018-07-14T06:11:42.768Z,99.90
2018-07-14T06:16:37.412Z,99.90
2018-07-14T06:21:32.148Z,99.90
2018-07-14T06:26:26.801Z,99.90
2018-07-14T06:31:21.509Z,99.90
2018-07-14T06:36:16.207Z,99.90
2018-07-14T06:41:10.882Z,99.90
2018-07-14T06:46:05.791Z,99.90
2018-07-14T06:51:00.608Z,99.90
2018-07-14T06:55:59.062Z,99.90
2018-07-14T07:00:54.407Z,99.90
2018-07-14T07:05:49.017Z,99.90
2018-07-14T07:10:43.636Z,99.90
2018-07-14T07:15:38.245Z,99.90
2018-07-14T07:20:32.852Z,99.90
2018-07-14T07:25:27.455Z,99.90
2018-07-14T07:30:22.193Z,99.90
2018-07-14T07:35:28.226Z,99.90
2018-07-14T07:40:22.967Z,99.90
2018-07-14T07:45:19.270Z,99.90
2018-07-14T07:50:15.822Z,99.90
2018-07-14T07:55:10.569Z,99.90
2018-07-14T08:00:11.833Z,99.90
2018-07-14T08:05:08.656Z,99.90
2018-07-14T08:10:07.405Z,99.90
2018-07-14T08:15:02.032Z,99.90
2018-07-14T08:19:57.549Z,99.90
2018-07-14T08:24:52.331Z,99.90
2018-07-14T08:29:46.949Z,99.90
2018-07-14T08:34:41.676Z,99.90
2018-07-14T08:39:36.453Z,99.90
2018-07-14T08:44:31.071Z,99.90
2018-07-14T08:49:25.724Z,99.90
2018-07-14T08:54:20.334Z,99.90
2018-07-14T08:59:14.998Z,99.40
2018-07-14T09:04:10.185Z,99.20
2018-07-14T09:09:06.831Z,99.00
2018-07-14T09:14:01.461Z,98.00
2018-07-14T09:18:56.061Z,97.00
2018-07-14T09:23:50.734Z,93.30
2018-07-14T09:28:45.352Z,96.20
2018-07-14T09:33:39.978Z,93.80
2018-07-14T09:38:34.552Z,94.00
2018-07-14T09:43:29.163Z,93.70
2018-07-14T09:48:23.784Z,92.10
2018-07-14T09:53:19.010Z,90.40
2018-07-14T09:58:14.144Z,91.30
2018-07-14T10:03:08.795Z,86.70
2018-07-14T10:08:03.404Z,90.00
2018-07-14T10:12:58.036Z,84.70
2018-07-14T10:17:53.001Z,84.60
2018-07-14T10:22:47.598Z,82.50
2018-07-14T10:27:42.520Z,80.80
2018-07-14T10:32:37.136Z,86.30
2018-07-14T10:37:32.004Z,79.20
2018-07-14T10:42:26.883Z,84.20
2018-07-14T10:47:21.493Z,81.80
2018-07-14T10:52:16.522Z,86.50
2018-07-14T10:57:11.164Z,86.60
2018-07-14T11:11:54.684Z,84.10
2018-07-14T11:16:49.351Z,87.00
2018-07-14T11:21:44.044Z,88.40
2018-07-14T11:26:38.664Z,89.60
2018-07-14T11:31:33.314Z,90.10
2018-07-14T11:36:27.975Z,89.20
2018-07-14T11:41:22.563Z,83.80
2018-07-14T11:46:17.368Z,87.10
2018-07-14T11:51:12.015Z,87.40
2018-07-14T11:56:06.721Z,90.60
2018-07-14T12:01:01.357Z,90.70
2018-07-14T12:05:56.020Z,88.60
2018-07-14T12:10:50.625Z,87.50
2018-07-14T12:15:45.320Z,82.00
2018-07-14T12:20:40.251Z,79.70
2018-07-14T12:25:38.804Z,80.50
2018-07-14T12:30:33.574Z,82.40
2018-07-14T12:35:28.132Z,80.50
2018-07-14T12:40:23.058Z,81.30
2018-07-14T12:45:17.649Z,84.00
2018-07-14T12:55:07.303Z,79.80
2018-07-14T13:00:02.104Z,75.60
2018-07-14T13:04:56.688Z,75.90
2018-07-14T13:14:45.640Z,76.80
2018-07-14T13:19:40.233Z,78.80
2018-07-14T13:24:34.896Z,78.30
2018-07-14T13:29:29.766Z,74.90
2018-07-14T13:34:24.371Z,73.60
2018-07-14T13:39:19.094Z,69.50
2018-07-14T13:44:13.735Z,65.60
2018-07-14T13:49:08.625Z,67.60
2018-07-14T13:54:03.232Z,67.50
2018-07-14T13:58:57.951Z,69.90
2018-07-14T14:03:52.617Z,68.00
2018-07-14T14:08:47.302Z,70.10
2018-07-14T14:13:42.011Z,75.90
2018-07-14T14:18:36.617Z,80.90
2018-07-14T14:23:31.260Z,77.70
2018-07-14T14:28:25.957Z,77.50
2018-07-14T14:33:20.605Z,74.00
2018-07-14T14:38:15.216Z,71.90
2018-07-14T14:43:09.835Z,70.70
2018-07-14T14:48:04.524Z,66.50
2018-07-14T14:52:59.119Z,67.30
2018-07-14T14:57:53.789Z,67.40
2018-07-14T15:02:48.398Z,67.80
2018-07-14T15:07:43.112Z,68.00
2018-07-14T15:17:32.377Z,67.30
2018-07-14T15:22:26.990Z,69.40
2018-07-14T15:27:22.607Z,63.80
2018-07-14T15:32:17.295Z,66.30
2018-07-14T15:37:11.917Z,68.30
2018-07-14T15:42:06.656Z,68.90
2018-07-14T15:47:01.283Z,73.10
2018-07-14T15:51:56.016Z,70.60
2018-07-14T15:56:50.604Z,69.30
2018-07-14T16:01:45.321Z,71.20
2018-07-14T16:06:40.017Z,68.20
2018-07-14T16:11:34.665Z,67.50
2018-07-14T16:16:29.356Z,67.90
2018-07-14T16:21:24.116Z,63.10
2018-07-14T16:26:18.765Z,65.30
2018-07-14T16:31:13.365Z,61.40
2018-07-14T16:36:08.975Z,68.30
2018-07-14T16:41:03.604Z,64.10
2018-07-14T16:45:58.307Z,59.10
2018-07-14T16:50:52.969Z,61.70
2018-07-14T16:55:47.551Z,60.40
2018-07-14T17:00:42.269Z,60.90
2018-07-14T17:05:36.857Z,64.00
2018-07-14T17:10:31.505Z,59.70
2018-07-14T17:15:26.130Z,63.00
2018-07-14T17:20:20.779Z,62.10
2018-07-14T17:25:15.419Z,62.70
2018-07-14T17:30:10.208Z,61.00
2018-07-14T17:35:04.903Z,62.30
2018-07-14T17:39:59.624Z,62.90
2018-07-14T17:44:54.237Z,68.10
2018-07-14T17:49:48.912Z,70.20
2018-07-14T17:54:43.500Z,70.70
2018-07-14T17:59:38.554Z,70.20
2018-07-14T18:04:33.172Z,72.70
2018-07-14T18:09:27.840Z,72.00
2018-07-14T18:14:22.460Z,73.00
2018-07-14T18:19:17.074Z,74.10
2018-07-14T18:24:11.708Z,75.70
2018-07-14T18:29:06.372Z,75.80
2018-07-14T18:34:00.972Z,75.60
2018-07-14T18:38:55.609Z,76.60
2018-07-14T18:43:50.364Z,77.30
2018-07-14T18:48:44.997Z,80.40
2018-07-14T18:53:39.705Z,79.10
2018-07-14T18:58:34.554Z,79.60
2018-07-14T19:03:29.232Z,82.30
2018-07-14T19:08:23.896Z,83.40
2018-07-14T19:13:18.528Z,85.30
2018-07-14T19:18:13.111Z,85.70
2018-07-14T19:23:07.780Z,86.30
2018-07-14T19:28:02.511Z,87.00
2018-07-14T19:32:57.176Z,86.00
2018-07-14T19:37:51.783Z,85.80
2018-07-14T19:42:46.511Z,85.60
2018-07-14T19:47:41.273Z,87.40
2018-07-14T19:52:35.912Z,88.80
2018-07-14T19:57:30.641Z,91.10
2018-07-14T20:02:25.321Z,92.20
2018-07-14T20:07:20.001Z,93.70
2018-07-14T20:12:14.814Z,95.10
2018-07-14T20:17:09.460Z,95.80
2018-07-14T20:22:04.153Z,95.90
2018-07-14T20:26:58.745Z,96.60
2018-07-14T20:31:53.592Z,97.40
2018-07-14T20:36:48.383Z,98.80
2018-07-14T20:41:43.300Z,99.90
2018-07-14T20:46:38.180Z,99.90
2018-07-14T20:51:32.823Z,99.90
2018-07-14T20:56:27.779Z,99.90
2018-07-14T21:01:22.428Z,99.90
2018-07-14T21:06:17.193Z,99.90
2018-07-14T21:11:11.836Z,99.90
2018-07-14T21:16:06.721Z,99.90
2018-07-14T21:21:01.636Z,99.90
2018-07-14T21:25:56.196Z,99.90
2018-07-14T21:30:51.263Z,99.90
2018-07-14T21:35:46.024Z,99.90
2018-07-14T21:40:41.317Z,99.90
2018-07-14T21:45:36.197Z,99.90
2018-07-14T21:50:30.955Z,99.90
2018-07-14T21:55:25.741Z,99.90
2018-07-14T22:00:34.994Z,99.90
2018-07-14T22:05:29.712Z,99.90
2018-07-14T22:10:24.580Z,99.90
2018-07-14T22:15:19.322Z,99.90
2018-07-14T22:20:14.043Z,99.90
2018-07-14T22:25:08.648Z,99.90
2018-07-14T22:30:03.544Z,99.90
2018-07-14T22:34:58.337Z,99.90
2018-07-14T22:39:53.075Z,99.90
2018-07-14T22:44:47.663Z,99.90
2018-07-14T22:49:42.369Z,99.90
2018-07-14T22:54:37.112Z,99.90
2018-07-14T22:59:31.786Z,99.90
2018-07-14T23:04:26.462Z,99.90
2018-07-14T23:09:21.320Z,99.90
2018-07-14T23:14:16.056Z,99.90
2018-07-14T23:19:10.638Z,99.90
2018-07-14T23:24:05.376Z,99.90
2018-07-14T23:29:00.082Z,99.90
2018-07-14T23:33:54.762Z,99.90
2018-07-14T23:38:49.425Z,99.90
2018-07-14T23:43:44.251Z,99.90
2018-07-14T23:48:39.121Z,99.90
2018-07-14T23:53:33.780Z,99.90
2018-07-14T23:58:28.319Z,99.90
